sensor_id;sensor_type;location;lat;lon;timestamp;pressure;altitude;pressure_sealevel;temperature;humidity
13709;BME280;54933;51.908;7.730;2024-02-21T00:01:16;101565.06;;;19.17;68.33
13709;BME280;54933;51.908;7.730;2024-02-21T00:03:42;101553.47;;;19.17;68.01
13709;BME280;54933;51.908;7.730;2024-02-21T00:06:07;101559.66;;;19.17;68.63
13709;BME280;54933;51.908;7.730;2024-02-21T00:08:32;101555.13;;;19.18;68.13
13709;BME280;54933;51.908;7.730;2024-02-21T00:10:57;101541.84;;;19.16;68.41
13709;BME280;54933;51.908;7.730;2024-02-21T00:13:23;101555.13;;;19.18;68.42
13709;BME280;54933;51.908;7.730;2024-02-21T00:15:49;101542.69;;;19.17;68.35
13709;BME280;54933;51.908;7.730;2024-02-21T00:18:14;101537.31;;;19.17;68.46
13709;BME280;54933;51.908;7.730;2024-02-21T00:20:40;101531.06;;;19.16;68.14
13709;BME280;54933;51.908;7.730;2024-02-21T00:23:05;101521.97;;;19.17;68.06
13709;BME280;54933;51.908;7.730;2024-02-21T00:25:30;101524.66;;;19.17;68.32
13709;BME280;54933;51.908;7.730;2024-02-21T00:27:55;101515.75;;;19.17;67.97
13709;BME280;54933;51.908;7.730;2024-02-21T00:30:21;101499.78;;;19.15;68.21
13709;BME280;54933;51.908;7.730;2024-02-21T00:32:46;101512.03;;;19.18;68.30
13709;BME280;54933;51.908;7.730;2024-02-21T00:35:11;101505.97;;;19.16;68.21
13709;BME280;54933;51.908;7.730;2024-02-21T00:37:37;101507.66;;;19.17;68.34
13709;BME280;54933;51.908;7.730;2024-02-21T00:40:03;101493.34;;;19.16;68.22
13709;BME280;54933;51.908;7.730;2024-02-21T00:42:28;101495.88;;;19.18;68.21
13709;BME280;54933;51.908;7.730;2024-02-21T00:44:53;101494.19;;;19.17;68.40
13709;BME280;54933;51.908;7.730;2024-02-21T00:47:19;101488.81;;;19.17;68.04
13709;BME280;54933;51.908;7.730;2024-02-21T00:49:44;101483.44;;;19.17;68.11
13709;BME280;54933;51.908;7.730;2024-02-21T00:52:09;101478.03;;;19.17;68.38
13709;BME280;54933;51.908;7.730;2024-02-21T00:54:34;101482.59;;;19.16;68.02
13709;BME280;54933;51.908;7.730;2024-02-21T00:57:00;101485.09;;;19.18;68.16
13709;BME280;54933;51.908;7.730;2024-02-21T00:59:25;101478.03;;;19.17;68.19
13709;BME280;54933;51.908;7.730;2024-02-21T01:01:50;101482.59;;;19.16;68.01
13709;BME280;54933;51.908;7.730;2024-02-21T01:04:15;101481.72;;;19.16;68.23
13709;BME280;54933;51.908;7.730;2024-02-21T01:06:41;101488.81;;;19.17;68.24
13709;BME280;54933;51.908;7.730;2024-02-21T01:09:09;101483.44;;;19.17;68.10
13709;BME280;54933;51.908;7.730;2024-02-21T01:11:34;101476.34;;;19.16;68.25
13709;BME280;54933;51.908;7.730;2024-02-21T01:13:59;101475.34;;;19.17;68.32
13709;BME280;54933;51.908;7.730;2024-02-21T01:16:26;101475.53;;;19.15;68.41
13709;BME280;54933;51.908;7.730;2024-02-21T01:18:51;101469.13;;;19.16;68.31
13709;BME280;54933;51.908;7.730;2024-02-21T01:21:16;101474.69;;;19.15;68.26
13709;BME280;54933;51.908;7.730;2024-02-21T01:23:41;101479.88;;;19.16;68.43
13709;BME280;54933;51.908;7.730;2024-02-21T01:26:07;101475.53;;;19.15;68.35
13709;BME280;54933;51.908;7.730;2024-02-21T01:28:34;101466.41;;;19.16;68.13
13709;BME280;54933;51.908;7.730;2024-02-21T01:30:59;101465.56;;;19.16;68.12
13709;BME280;54933;51.908;7.730;2024-02-21T01:33:24;101456.50;;;19.17;68.46
13709;BME280;54933;51.908;7.730;2024-02-21T01:35:50;101456.50;;;19.17;68.12
13709;BME280;54933;51.908;7.730;2024-02-21T01:38:15;101454.78;;;19.16;68.34
13709;BME280;54933;51.908;7.730;2024-02-21T01:40:41;101458.34;;;19.16;68.04
13709;BME280;54933;51.908;7.730;2024-02-21T01:43:15;101446.91;;;19.14;68.03
13709;BME280;54933;51.908;7.730;2024-02-21T01:45:41;101444.03;;;19.16;68.22
13709;BME280;54933;51.908;7.730;2024-02-21T01:48:07;101440.31;;;19.17;68.46
13709;BME280;54933;51.908;7.730;2024-02-21T01:50:33;101442.16;;;19.16;68.18
13709;BME280;54933;51.908;7.730;2024-02-21T01:52:58;101434.09;;;19.16;68.12
13709;BME280;54933;51.908;7.730;2024-02-21T01:55:24;101427.84;;;19.16;68.10
13709;BME280;54933;51.908;7.730;2024-02-21T01:57:50;101433.25;;;19.16;68.05
13709;BME280;54933;51.908;7.730;2024-02-21T02:00:16;101428.69;;;19.16;68.09
13709;BME280;54933;51.908;7.730;2024-02-21T02:02:41;101421.47;;;19.17;68.04
13709;BME280;54933;51.908;7.730;2024-02-21T02:05:07;101407.16;;;19.16;68.48
13709;BME280;54933;51.908;7.730;2024-02-21T02:07:33;101415.44;;;19.15;68.08
13709;BME280;54933;51.908;7.730;2024-02-21T02:09:58;101405.50;;;19.15;68.17
13709;BME280;54933;51.908;7.730;2024-02-21T02:12:24;101404.66;;;19.15;68.29
13709;BME280;54933;51.908;7.730;2024-02-21T02:15:00;101402.59;;;19.17;68.40
13709;BME280;54933;51.908;7.730;2024-02-21T02:17:25;101389.31;;;19.15;68.02
13709;BME280;54933;51.908;7.730;2024-02-21T02:19:50;101390.16;;;19.16;68.30
13709;BME280;54933;51.908;7.730;2024-02-21T02:22:21;101403.00;;;19.14;68.11
13709;BME280;54933;51.908;7.730;2024-02-21T02:24:47;101388.50;;;19.15;68.14
13709;BME280;54933;51.908;7.730;2024-02-21T02:27:12;101384.75;;;19.16;68.20
13709;BME280;54933;51.908;7.730;2024-02-21T02:29:38;101377.72;;;19.15;68.32
13709;BME280;54933;51.908;7.730;2024-02-21T02:32:03;101371.47;;;19.14;67.97
13709;BME280;54933;51.908;7.730;2024-02-21T02:34:28;101363.41;;;19.14;67.64
13709;BME280;54933;51.908;7.730;2024-02-21T02:36:55;101366.94;;;19.15;68.02
13709;BME280;54933;51.908;7.730;2024-02-21T02:39:20;101366.94;;;19.15;68.18
13709;BME280;54933;51.908;7.730;2024-02-21T02:41:45;101345.38;;;19.15;67.89
13709;BME280;54933;51.908;7.730;2024-02-21T02:44:11;101344.53;;;19.14;67.93
13709;BME280;54933;51.908;7.730;2024-02-21T02:46:36;101331.91;;;19.15;67.89
13709;BME280;54933;51.908;7.730;2024-02-21T02:49:01;101332.94;;;19.14;67.99
13709;BME280;54933;51.908;7.730;2024-02-21T02:51:27;101328.38;;;19.14;68.30
13709;BME280;54933;51.908;7.730;2024-02-21T02:53:52;101329.22;;;19.15;67.90
13709;BME280;54933;51.908;7.730;2024-02-21T02:56:17;101315.75;;;19.15;67.95
13709;BME280;54933;51.908;7.730;2024-02-21T02:58:43;101300.44;;;19.15;67.92
13709;BME280;54933;51.908;7.730;2024-02-21T03:01:08;101290.66;;;19.14;68.11
13709;BME280;54933;51.908;7.730;2024-02-21T03:03:34;101296.91;;;19.15;68.14
13709;BME280;54933;51.908;7.730;2024-02-21T03:05:59;101297.75;;;19.15;68.23
13709;BME280;54933;51.908;7.730;2024-02-21T03:08:24;101288.81;;;19.15;67.96
13709;BME280;54933;51.908;7.730;2024-02-21T03:10:49;101301.44;;;19.14;68.01
13709;BME280;54933;51.908;7.730;2024-02-21T03:13:15;101296.91;;;19.15;68.51
13709;BME280;54933;51.908;7.730;2024-02-21T03:15:40;101297.75;;;19.15;68.03
13709;BME280;54933;51.908;7.730;2024-02-21T03:18:05;101308.72;;;19.14;68.30
13709;BME280;54933;51.908;7.730;2024-02-21T03:20:30;101313.06;;;19.15;67.94
13709;BME280;54933;51.908;7.730;2024-02-21T03:22:56;101323.00;;;19.14;68.25
13709;BME280;54933;51.908;7.730;2024-02-21T03:25:21;101321.13;;;19.15;68.13
13709;BME280;54933;51.908;7.730;2024-02-21T03:27:46;101335.66;;;19.14;68.10
13709;BME280;54933;51.908;7.730;2024-02-21T03:30:12;101344.53;;;19.14;68.37
13709;BME280;54933;51.908;7.730;2024-02-21T03:32:38;101346.41;;;19.14;68.02
13709;BME280;54933;51.908;7.730;2024-02-21T03:35:04;101344.53;;;19.14;68.26
13709;BME280;54933;51.908;7.730;2024-02-21T03:37:30;101350.13;;;19.13;68.36
13709;BME280;54933;51.908;7.730;2024-02-21T03:39:55;101339.16;;;19.14;68.01
13709;BME280;54933;51.908;7.730;2024-02-21T03:42:20;101339.16;;;19.14;68.26
13709;BME280;54933;51.908;7.730;2024-02-21T03:44:45;101328.38;;;19.14;68.36
13709;BME280;54933;51.908;7.730;2024-02-21T03:47:11;101324.88;;;19.14;68.25
13709;BME280;54933;51.908;7.730;2024-02-21T03:49:37;101316.78;;;19.14;68.24
13709;BME280;54933;51.908;7.730;2024-02-21T03:52:02;101317.59;;;19.14;68.37
13709;BME280;54933;51.908;7.730;2024-02-21T03:54:27;101314.91;;;19.14;68.10
13709;BME280;54933;51.908;7.730;2024-02-21T03:56:53;101314.09;;;19.14;68.37
13709;BME280;54933;51.908;7.730;2024-02-21T03:59:18;101317.78;;;19.13;68.00
13709;BME280;54933;51.908;7.730;2024-02-21T04:01:43;101322.19;;;19.14;67.97
13709;BME280;54933;51.908;7.730;2024-02-21T04:04:10;101324.03;;;19.13;68.29
13709;BME280;54933;51.908;7.730;2024-02-21T04:06:35;101327.56;;;19.14;68.01
13709;BME280;54933;51.908;7.730;2024-02-21T04:09:00;101311.41;;;19.14;68.30
13709;BME280;54933;51.908;7.730;2024-02-21T04:11:25;101320.50;;;19.13;68.10
13709;BME280;54933;51.908;7.730;2024-02-21T04:13:51;101322.19;;;19.14;68.62
13709;BME280;54933;51.908;7.730;2024-02-21T04:16:17;101327.56;;;19.14;68.04
13709;BME280;54933;51.908;7.730;2024-02-21T04:18:42;101330.25;;;19.14;67.89
13709;BME280;54933;51.908;7.730;2024-02-21T04:21:09;101331.91;;;19.15;67.93
13709;BME280;54933;51.908;7.730;2024-02-21T04:23:35;101316.78;;;19.14;67.96
13709;BME280;54933;51.908;7.730;2024-02-21T04:26:01;101319.47;;;19.14;68.28
13709;BME280;54933;51.908;7.730;2024-02-21T04:28:26;101322.19;;;19.14;68.04
13709;BME280;54933;51.908;7.730;2024-02-21T04:30:51;101319.47;;;19.14;67.62
13709;BME280;54933;51.908;7.730;2024-02-21T04:33:17;101316.78;;;19.14;68.22
13709;BME280;54933;51.908;7.730;2024-02-21T04:35:42;101309.72;;;19.13;68.12
13709;BME280;54933;51.908;7.730;2024-02-21T04:38:07;101319.66;;;19.12;68.00
13709;BME280;54933;51.908;7.730;2024-02-21T04:40:32;101315.09;;;19.13;67.99
13709;BME280;54933;51.908;7.730;2024-02-21T04:42:58;101320.50;;;19.13;67.91
13709;BME280;54933;51.908;7.730;2024-02-21T04:45:23;101325.88;;;19.13;68.08
13709;BME280;54933;51.908;7.730;2024-02-21T04:47:48;101331.25;;;19.13;68.22
13709;BME280;54933;51.908;7.730;2024-02-21T04:50:14;101328.56;;;19.13;68.00
13709;BME280;54933;51.908;7.730;2024-02-21T04:52:39;101325.88;;;19.13;67.80
13709;BME280;54933;51.908;7.730;2024-02-21T04:55:04;101325.88;;;19.13;67.80
13709;BME280;54933;51.908;7.730;2024-02-21T04:57:30;101324.22;;;19.12;68.27
13709;BME280;54933;51.908;7.730;2024-02-21T04:59:55;101309.72;;;19.13;68.15
13709;BME280;54933;51.908;7.730;2024-02-21T05:02:20;101304.31;;;19.13;67.96
13709;BME280;54933;51.908;7.730;2024-02-21T05:04:47;101303.47;;;19.12;67.80
13709;BME280;54933;51.908;7.730;2024-02-21T05:07:13;101304.31;;;19.13;68.00
13709;BME280;54933;51.908;7.730;2024-02-21T05:09:38;101310.75;;;19.12;68.03
13709;BME280;54933;51.908;7.730;2024-02-21T05:12:03;101309.72;;;19.13;67.88
13709;BME280;54933;51.908;7.730;2024-02-21T05:14:29;101297.28;;;19.12;67.81
13709;BME280;54933;51.908;7.730;2024-02-21T05:16:54;101297.28;;;19.12;68.00
13709;BME280;54933;51.908;7.730;2024-02-21T05:19:19;101292.72;;;19.12;67.98
13709;BME280;54933;51.908;7.730;2024-02-21T05:21:45;101287.31;;;19.12;68.39
13709;BME280;54933;51.908;7.730;2024-02-21T05:24:10;101280.94;;;19.13;67.93
13709;BME280;54933;51.908;7.730;2024-02-21T05:26:35;101271.16;;;19.12;68.13
13709;BME280;54933;51.908;7.730;2024-02-21T05:29:01;101265.78;;;19.12;68.03
13709;BME280;54933;51.908;7.730;2024-02-21T05:31:26;101270.34;;;19.12;67.92
13709;BME280;54933;51.908;7.730;2024-02-21T05:34:07;101259.56;;;19.12;68.04
13709;BME280;54933;51.908;7.730;2024-02-21T05:36:32;101264.97;;;19.12;68.20
13709;BME280;54933;51.908;7.730;2024-02-21T05:38:58;101255.00;;;19.12;68.05
13709;BME280;54933;51.908;7.730;2024-02-21T05:41:23;101254.19;;;19.12;68.05
13709;BME280;54933;51.908;7.730;2024-02-21T05:43:48;101261.22;;;19.13;67.94
13709;BME280;54933;51.908;7.730;2024-02-21T05:46:13;101256.03;;;19.11;68.19
13709;BME280;54933;51.908;7.730;2024-02-21T05:48:38;101251.50;;;19.12;68.19
13709;BME280;54933;51.908;7.730;2024-02-21T05:51:04;101255.84;;;19.13;67.99
13709;BME280;54933;51.908;7.730;2024-02-21T05:53:29;101253.34;;;19.11;68.05
13709;BME280;54933;51.908;7.730;2024-02-21T05:55:54;101257.69;;;19.12;68.02
13709;BME280;54933;51.908;7.730;2024-02-21T05:58:20;101263.91;;;19.13;68.02
13709;BME280;54933;51.908;7.730;2024-02-21T06:00:45;101254.19;;;19.12;68.22
13709;BME280;54933;51.908;7.730;2024-02-21T06:03:10;101253.16;;;19.13;68.15
13709;BME280;54933;51.908;7.730;2024-02-21T06:05:37;101253.34;;;19.11;68.09
13709;BME280;54933;51.908;7.730;2024-02-21T06:08:03;101246.31;;;19.10;68.09
13709;BME280;54933;51.908;7.730;2024-02-21T06:10:29;101231.78;;;19.11;67.77
13709;BME280;54933;51.908;7.730;2024-02-21T06:12:54;101227.25;;;19.12;67.72
13709;BME280;54933;51.908;7.730;2024-02-21T06:15:19;101228.25;;;19.11;68.14
13709;BME280;54933;51.908;7.730;2024-02-21T06:17:44;101225.56;;;19.11;68.19
13709;BME280;54933;51.908;7.730;2024-02-21T06:20:10;101223.72;;;19.11;68.27
13709;BME280;54933;51.908;7.730;2024-02-21T06:22:35;101223.72;;;19.11;67.95
13709;BME280;54933;51.908;7.730;2024-02-21T06:25:00;101219.38;;;19.10;68.25
13709;BME280;54933;51.908;7.730;2024-02-21T06:27:27;101221.03;;;19.11;67.95
13709;BME280;54933;51.908;7.730;2024-02-21T06:29:52;101216.66;;;19.10;68.19
13709;BME280;54933;51.908;7.730;2024-02-21T06:32:17;101213.78;;;19.12;68.03
13709;BME280;54933;51.908;7.730;2024-02-21T06:34:42;101204.84;;;19.11;67.88
13709;BME280;54933;51.908;7.730;2024-02-21T06:37:08;101207.56;;;19.11;68.14
13709;BME280;54933;51.908;7.730;2024-02-21T06:39:34;101204.84;;;19.11;68.23
13709;BME280;54933;51.908;7.730;2024-02-21T06:42:02;101198.63;;;19.11;67.90
13709;BME280;54933;51.908;7.730;2024-02-21T06:44:28;101195.94;;;19.11;67.91
13709;BME280;54933;51.908;7.730;2024-02-21T06:46:53;101189.53;;;19.12;67.76
13709;BME280;54933;51.908;7.730;2024-02-21T06:49:19;101188.69;;;19.11;67.86
13709;BME280;54933;51.908;7.730;2024-02-21T06:51:45;101169.84;;;19.11;68.26
13709;BME280;54933;51.908;7.730;2024-02-21T06:54:10;101177.06;;;19.11;67.97
13709;BME280;54933;51.908;7.730;2024-02-21T06:56:36;101177.06;;;19.11;68.19
13709;BME280;54933;51.908;7.730;2024-02-21T06:59:02;101174.38;;;19.11;67.82
13709;BME280;54933;51.908;7.730;2024-02-21T07:01:30;101182.47;;;19.11;68.22
13709;BME280;54933;51.908;7.730;2024-02-21T07:03:56;101187.84;;;19.11;67.91
13709;BME280;54933;51.908;7.730;2024-02-21T07:06:22;101183.31;;;19.11;68.19
13709;BME280;54933;51.908;7.730;2024-02-21T07:08:47;101182.47;;;19.11;67.75
13709;BME280;54933;51.908;7.730;2024-02-21T07:11:12;101187.84;;;19.11;68.18
13709;BME280;54933;51.908;7.730;2024-02-21T07:13:38;101193.25;;;19.11;67.64
13709;BME280;54933;51.908;7.730;2024-02-21T07:16:03;101182.47;;;19.11;67.89
13709;BME280;54933;51.908;7.730;2024-02-21T07:18:28;101192.44;;;19.10;68.17
13709;BME280;54933;51.908;7.730;2024-02-21T07:20:54;101187.03;;;19.10;68.01
13709;BME280;54933;51.908;7.730;2024-02-21T07:23:19;101193.25;;;19.11;68.01
13709;BME280;54933;51.908;7.730;2024-02-21T07:25:44;101187.84;;;19.11;67.88
13709;BME280;54933;51.908;7.730;2024-02-21T07:28:10;101187.84;;;19.11;68.49
13709;BME280;54933;51.908;7.730;2024-02-21T07:30:35;101183.50;;;19.10;67.83
13709;BME280;54933;51.908;7.730;2024-02-21T07:33:00;101188.91;;;19.10;67.91
13709;BME280;54933;51.908;7.730;2024-02-21T07:35:25;101193.25;;;19.11;68.21
13709;BME280;54933;51.908;7.730;2024-02-21T07:37:51;101180.63;;;19.11;67.88
13709;BME280;54933;51.908;7.730;2024-02-21T07:40:16;101178.13;;;19.10;68.08
13709;BME280;54933;51.908;7.730;2024-02-21T07:42:43;101180.81;;;19.10;67.67
13709;BME280;54933;51.908;7.730;2024-02-21T07:45:08;101180.81;;;19.10;67.84
13709;BME280;54933;51.908;7.730;2024-02-21T07:47:35;101175.44;;;19.10;68.29
13709;BME280;54933;51.908;7.730;2024-02-21T07:50:01;101176.28;;;19.10;67.76
13709;BME280;54933;51.908;7.730;2024-02-21T07:52:27;101180.81;;;19.10;67.98
13709;BME280;54933;51.908;7.730;2024-02-21T07:54:52;101175.22;;;19.11;68.17
13709;BME280;54933;51.908;7.730;2024-02-21T07:57:18;101174.38;;;19.11;67.57
13709;BME280;54933;51.908;7.730;2024-02-21T07:59:43;101172.72;;;19.10;67.82
13709;BME280;54933;51.908;7.730;2024-02-21T08:02:08;101170.03;;;19.10;68.13
13709;BME280;54933;51.908;7.730;2024-02-21T08:04:33;101159.25;;;19.10;68.22
13709;BME280;54933;51.908;7.730;2024-02-21T08:06:59;101161.13;;;19.09;67.84
13709;BME280;54933;51.908;7.730;2024-02-21T08:09:27;101160.09;;;19.10;68.05
13709;BME280;54933;51.908;7.730;2024-02-21T08:11:53;101153.88;;;19.10;68.00
13709;BME280;54933;51.908;7.730;2024-02-21T08:14:19;101153.03;;;19.09;68.08
13709;BME280;54933;51.908;7.730;2024-02-21T08:16:44;101148.50;;;19.10;68.14
13709;BME280;54933;51.908;7.730;2024-02-21T08:19:11;101143.09;;;19.10;67.77
13709;BME280;54933;51.908;7.730;2024-02-21T08:21:36;101152.22;;;19.09;68.15
13709;BME280;54933;51.908;7.730;2024-02-21T08:24:01;101151.19;;;19.10;67.79
13709;BME280;54933;51.908;7.730;2024-02-21T08:26:27;101145.78;;;19.10;67.97
13709;BME280;54933;51.908;7.730;2024-02-21T08:28:55;101135.88;;;19.10;68.04
13709;BME280;54933;51.908;7.730;2024-02-21T08:31:20;101133.97;;;19.11;68.04
13709;BME280;54933;51.908;7.730;2024-02-21T08:33:46;101125.09;;;19.10;68.14
13709;BME280;54933;51.908;7.730;2024-02-21T08:36:18;101126.94;;;19.10;68.04
13709;BME280;54933;51.908;7.730;2024-02-21T08:38:44;101121.56;;;19.10;67.82
13709;BME280;54933;51.908;7.730;2024-02-21T08:41:09;101118.03;;;19.09;68.08
13709;BME280;54933;51.908;7.730;2024-02-21T08:43:34;101118.88;;;19.10;68.19
13709;BME280;54933;51.908;7.730;2024-02-21T08:46:01;101111.63;;;19.10;67.74
13709;BME280;54933;51.908;7.730;2024-02-21T08:48:26;101116.16;;;19.10;68.06
13709;BME280;54933;51.908;7.730;2024-02-21T08:50:51;101113.47;;;19.10;67.84
13709;BME280;54933;51.908;7.730;2024-02-21T08:53:16;101115.31;;;19.09;67.87
13709;BME280;54933;51.908;7.730;2024-02-21T08:55:42;101109.13;;;19.09;68.15
13709;BME280;54933;51.908;7.730;2024-02-21T08:58:09;101110.78;;;19.10;67.99
13709;BME280;54933;51.908;7.730;2024-02-21T09:00:34;101103.75;;;19.09;67.93
13709;BME280;54933;51.908;7.730;2024-02-21T09:03:00;101097.50;;;19.08;68.17
13709;BME280;54933;51.908;7.730;2024-02-21T09:05:25;101101.06;;;19.09;67.77
13709;BME280;54933;51.908;7.730;2024-02-21T09:07:50;101100.00;;;19.10;67.92
13709;BME280;54933;51.908;7.730;2024-02-21T09:10:15;101100.00;;;19.10;67.79
13709;BME280;54933;51.908;7.730;2024-02-21T09:12:41;101098.34;;;19.09;68.13
13709;BME280;54933;51.908;7.730;2024-02-21T09:15:06;101092.97;;;19.09;67.93
13709;BME280;54933;51.908;7.730;2024-02-21T09:17:31;101095.66;;;19.09;67.72
13709;BME280;54933;51.908;7.730;2024-02-21T09:19:57;101087.59;;;19.09;68.00
13709;BME280;54933;51.908;7.730;2024-02-21T09:22:24;101088.41;;;19.09;67.98
13709;BME280;54933;51.908;7.730;2024-02-21T09:24:49;101077.63;;;19.09;67.91
13709;BME280;54933;51.908;7.730;2024-02-21T09:27:15;101071.44;;;19.09;67.82
13709;BME280;54933;51.908;7.730;2024-02-21T09:29:40;101072.22;;;19.09;67.81
13709;BME280;54933;51.908;7.730;2024-02-21T09:32:05;101071.44;;;19.09;67.70
13709;BME280;54933;51.908;7.730;2024-02-21T09:34:31;101066.03;;;19.09;67.77
13709;BME280;54933;51.908;7.730;2024-02-21T09:36:57;101066.03;;;19.09;67.90
13709;BME280;54933;51.908;7.730;2024-02-21T09:39:22;101057.97;;;19.09;68.03
13709;BME280;54933;51.908;7.730;2024-02-21T09:41:50;101057.97;;;19.09;68.09
13709;BME280;54933;51.908;7.730;2024-02-21T09:44:19;101054.41;;;19.08;67.92
13709;BME280;54933;51.908;7.730;2024-02-21T09:46:56;101039.09;;;19.09;67.84
13709;BME280;54933;51.908;7.730;2024-02-21T09:49:32;101039.09;;;19.09;68.00
13709;BME280;54933;51.908;7.730;2024-02-21T09:52:00;101050.88;;;19.08;67.67
13709;BME280;54933;51.908;7.730;2024-02-21T09:54:27;101044.50;;;19.09;68.21
13709;BME280;54933;51.908;7.730;2024-02-21T09:56:53;101049.88;;;19.09;67.78
13709;BME280;54933;51.908;7.730;2024-02-21T09:59:18;101060.66;;;19.09;67.87
13709;BME280;54933;51.908;7.730;2024-02-21T10:01:44;101051.72;;;19.08;67.81
13709;BME280;54933;51.908;7.730;2024-02-21T10:04:10;101057.13;;;19.08;68.09
13709;BME280;54933;51.908;7.730;2024-02-21T10:06:35;101043.66;;;19.08;68.10
13709;BME280;54933;51.908;7.730;2024-02-21T10:09:02;101052.56;;;19.09;68.16
13709;BME280;54933;51.908;7.730;2024-02-21T10:11:28;101042.81;;;19.08;67.87
13709;BME280;54933;51.908;7.730;2024-02-21T10:14:06;101049.88;;;19.09;68.12
13709;BME280;54933;51.908;7.730;2024-02-21T10:16:33;101044.50;;;19.09;68.15
13709;BME280;54933;51.908;7.730;2024-02-21T10:18:59;101036.41;;;19.09;68.14
13709;BME280;54933;51.908;7.730;2024-02-21T10:21:24;101039.09;;;19.09;68.16
13709;BME280;54933;51.908;7.730;2024-02-21T10:23:50;101039.09;;;19.09;67.72
13709;BME280;54933;51.908;7.730;2024-02-21T10:26:17;101033.72;;;19.09;67.91
13709;BME280;54933;51.908;7.730;2024-02-21T10:28:42;101033.72;;;19.09;68.25
13709;BME280;54933;51.908;7.730;2024-02-21T10:31:10;101031.03;;;19.09;67.92
13709;BME280;54933;51.908;7.730;2024-02-21T10:33:36;101021.25;;;19.08;67.91
13709;BME280;54933;51.908;7.730;2024-02-21T10:36:09;101009.47;;;19.09;68.24
13709;BME280;54933;51.908;7.730;2024-02-21T10:38:38;101012.16;;;19.09;68.16
13709;BME280;54933;51.908;7.730;2024-02-21T10:41:05;101018.56;;;19.08;67.81
13709;BME280;54933;51.908;7.730;2024-02-21T10:43:37;101003.25;;;19.08;68.25
13709;BME280;54933;51.908;7.730;2024-02-21T10:46:06;100996.00;;;19.09;68.12
13709;BME280;54933;51.908;7.730;2024-02-21T10:48:40;101002.22;;;19.09;67.96
13709;BME280;54933;51.908;7.730;2024-02-21T10:51:20;100993.31;;;19.09;68.10
13709;BME280;54933;51.908;7.730;2024-02-21T10:54:06;100991.63;;;19.08;68.01
13709;BME280;54933;51.908;7.730;2024-02-21T10:56:35;100982.53;;;19.09;67.58
13709;BME280;54933;51.908;7.730;2024-02-21T10:59:03;100972.78;;;19.08;68.18
13709;BME280;54933;51.908;7.730;2024-02-21T11:01:29;100969.06;;;19.09;68.30
13709;BME280;54933;51.908;7.730;2024-02-21T11:03:58;100967.41;;;19.08;67.95
13709;BME280;54933;51.908;7.730;2024-02-21T11:06:26;100962.00;;;19.08;68.05
13709;BME280;54933;51.908;7.730;2024-02-21T11:09:07;100962.00;;;19.08;67.73
13709;BME280;54933;51.908;7.730;2024-02-21T11:11:38;100954.78;;;19.08;68.05
13709;BME280;54933;51.908;7.730;2024-02-21T11:14:26;100952.91;;;19.09;68.03
13709;BME280;54933;51.908;7.730;2024-02-21T11:16:49;100951.25;;;19.08;68.15
13709;BME280;54933;51.908;7.730;2024-02-21T11:19:28;100940.47;;;19.08;67.82
13709;BME280;54933;51.908;7.730;2024-02-21T11:21:55;100933.44;;;19.07;67.91
13709;BME280;54933;51.908;7.730;2024-02-21T11:24:33;100924.31;;;19.08;67.93
13709;BME280;54933;51.908;7.730;2024-02-21T11:29:43;100918.91;;;19.08;67.56
13709;BME280;54933;51.908;7.730;2024-02-21T11:32:10;100908.16;;;19.08;67.71
13709;BME280;54933;51.908;7.730;2024-02-21T11:34:36;100902.75;;;19.08;67.70
13709;BME280;54933;51.908;7.730;2024-02-21T11:37:01;100900.91;;;19.08;68.17
13709;BME280;54933;51.908;7.730;2024-02-21T11:39:27;100896.56;;;19.07;67.81
13709;BME280;54933;51.908;7.730;2024-02-21T11:42:02;100891.97;;;19.08;67.70
13709;BME280;54933;51.908;7.730;2024-02-21T11:44:29;100885.78;;;19.07;68.10
13709;BME280;54933;51.908;7.730;2024-02-21T11:46:54;100885.78;;;19.07;68.10
13709;BME280;54933;51.908;7.730;2024-02-21T11:49:20;100883.09;;;19.07;67.89
13709;BME280;54933;51.908;7.730;2024-02-21T11:51:45;100881.22;;;19.08;67.75
13709;BME280;54933;51.908;7.730;2024-02-21T11:54:11;100883.91;;;19.08;68.04
13709;BME280;54933;51.908;7.730;2024-02-21T11:56:38;100863.19;;;19.08;67.83
13709;BME280;54933;51.908;7.730;2024-02-21T11:59:03;100845.41;;;19.07;68.11
13709;BME280;54933;51.908;7.730;2024-02-21T12:01:29;100843.50;;;19.08;67.93
13709;BME280;54933;51.908;7.730;2024-02-21T12:03:54;100826.53;;;19.07;67.84
13709;BME280;54933;51.908;7.730;2024-02-21T12:06:21;100821.97;;;19.08;68.03
13709;BME280;54933;51.908;7.730;2024-02-21T12:08:47;100810.38;;;19.07;68.09
13709;BME280;54933;51.908;7.730;2024-02-21T12:11:22;100804.16;;;19.07;68.15
13709;BME280;54933;51.908;7.730;2024-02-21T12:14:03;100795.03;;;19.08;67.71
13709;BME280;54933;51.908;7.730;2024-02-21T12:16:31;100800.41;;;19.08;67.82
13709;BME280;54933;51.908;7.730;2024-02-21T12:18:57;100805.00;;;19.07;68.02
13709;BME280;54933;51.908;7.730;2024-02-21T12:21:32;100801.47;;;19.07;67.84
13709;BME280;54933;51.908;7.730;2024-02-21T12:23:59;100785.31;;;19.07;68.04
13709;BME280;54933;51.908;7.730;2024-02-21T12:26:25;100779.72;;;19.08;67.83
13709;BME280;54933;51.908;7.730;2024-02-21T12:28:51;100772.69;;;19.07;67.90
13709;BME280;54933;51.908;7.730;2024-02-21T12:31:17;100770.78;;;19.08;67.77
13709;BME280;54933;51.908;7.730;2024-02-21T12:33:43;100764.59;;;19.07;67.92
13709;BME280;54933;51.908;7.730;2024-02-21T12:36:08;100755.69;;;19.07;67.86
13709;BME280;54933;51.908;7.730;2024-02-21T12:38:35;100745.75;;;19.07;67.98
13709;BME280;54933;51.908;7.730;2024-02-21T12:41:00;100731.44;;;19.07;68.22
13709;BME280;54933;51.908;7.730;2024-02-21T12:43:26;100717.97;;;19.07;68.07
13709;BME280;54933;51.908;7.730;2024-02-21T12:45:52;100704.50;;;19.07;67.92
13709;BME280;54933;51.908;7.730;2024-02-21T12:48:18;100708.03;;;19.07;67.63